Niledutch Osprey — V7AP5 — position and weather

sailwx.info

Track history (hours):
 
Tides and Currents Weather Stations Pressure Air Temp Water Temp Dewpoint Dewpoint Depression Visibility Wind Speed Wind Dir Waves Ship Positions

Niledutch Osprey

Last reported at 2017-Dec-03 00:37 UTC. Time now 2017-Dec-14 08:24 UTC.
Position N 36°02' W 005°09'.
Warning: this ship's position is 11 days out of date.

Length 182 m; draft 9.6 m.

Type: Ship (hazmat cat A). MMSI: 538005042.

Date/timePositionNaut miles runAvg speedWind from/ knotsBaromVisibWave heightAir tempDewpointWater temp
2017-Dec-03 00:37N 36°02' W 005°09'218.8
2017-Dec-03 00:30N 36°02' W 005°12'918.4
2017-Dec-03 00:00N 36°05' W 005°22'3 5.6
2017-Dec-02 23:24N 36°08' W 005°25'0 0.0
2017-Dec-02 23:00N 36°08' W 005°25'0 0.0
2017-Dec-02 22:30N 36°08' W 005°25'0 0.0
2017-Dec-02 21:50N 36°08' W 005°25'0 0.0
2017-Dec-02 13:59N 36°08' W 005°25'1 1.1
2017-Dec-02 13:30N 36°08' W 005°25'2 2.7
2017-Dec-02 12:55N 36°07' W 005°24'0 0.2
2017-Dec-02 10:37N 36°06' W 005°24'0 0.1
2017-Dec-02 09:13N 36°06' W 005°24'0 0.1
2017-Dec-02 08:58N 36°06' W 005°24'0 0.0
2017-Dec-02 04:01N 36°06' W 005°24'0 0.2
2017-Dec-02 03:58N 36°06' W 005°24'0 0.1
2017-Dec-02 03:28N 36°06' W 005°24'0 0.0
2017-Dec-02 02:40N 36°06' W 005°24'0 0.0
2017-Dec-02 01:49N 36°06' W 005°24'0 0.0
2017-Dec-01 23:42N 36°06' W 005°24'0 0.0
2017-Dec-01 23:11N 36°06' W 005°24'6 0.6
2017-Dec-01 13:37N 35°60' W 005°25'215.3
2017-Dec-01 13:30N 35°59' W 005°26'20315.0
2017-Dec-01 00:00N 36°18' W 009°36'19115.9 040 / 191024.5 5.4 16.012.417.0
2017-Nov-30 12:00N 36°54' W 013°30'17914.9 040 / 231024.5 5.4 18.014.6
2017-Nov-30 00:00N 37°18' W 017°12'17214.4 070 / 301018.5 5.4 17.013.5
2017-Nov-29 12:00N 37°36' W 020°48'14713.3 070 / 311016.5 5.4 19.015.7
2017-Nov-29 00:55N 37°51' W 023°53'614.3
2017-Nov-29 00:30N 37°52' W 024°01'714.2
2017-Nov-29 00:00N 37°52' W 024°10'4282.6
2017-Nov-29 00:00N 37°48' W 024°12'714.0 070 / 301018.5 5.4 16.012.4
2017-Nov-28 23:30N 37°52' W 024°18'713.9
2017-Nov-28 23:00N 37°53' W 024°27'714.0
2017-Nov-28 22:31N 37°53' W 024°36'714.0
2017-Nov-28 22:00N 37°53' W 024°45'714.4
2017-Nov-28 21:30N 37°54' W 024°54'714.2
2017-Nov-28 21:01N 37°54' W 025°03'714.4
2017-Nov-28 20:30N 37°55' W 025°12'714.5
2017-Nov-28 20:01N 37°56' W 025°21'714.8
2017-Nov-28 19:30N 37°56' W 025°31'714.8
2017-Nov-28 19:01N 37°57' W 025°40'714.2
2017-Nov-28 18:30N 37°58' W 025°49'714.1
2017-Nov-28 18:01N 37°59' W 025°58'714.5
2017-Nov-28 17:30N 38°03' W 026°05'714.6
2017-Nov-28 17:01N 38°07' W 026°13'714.4
2017-Nov-28 16:31N 38°11' W 026°20'714.4
2017-Nov-28 16:00N 38°15' W 026°28'1312.7
2017-Nov-28 15:00N 38°23' W 026°41'612.0
2017-Nov-28 14:31N 38°26' W 026°47'612.1
2017-Nov-28 14:00N 38°30' W 026°54'612.7
2017-Nov-28 13:30N 38°33' W 027°01'714.6
2017-Nov-28 13:00N 38°32' W 027°10'714.8
2017-Nov-28 12:30N 38°32' W 027°19'714.9
2017-Nov-28 12:00N 38°31' W 027°29'2112.0
2017-Nov-28 12:00N 38°30' W 027°30'713.8 080 / 221018.5 2.2 20.016.7
2017-Nov-28 11:30N 38°31' W 027°39'815.2
2017-Nov-28 11:01N 38°30' W 027°48'815.8
2017-Nov-28 10:30N 38°32' W 027°58'816.7
2017-Nov-28 10:00N 38°34' W 028°08'816.4
2017-Nov-28 09:30N 38°36' W 028°18'816.3
2017-Nov-28 09:00N 38°38' W 028°28'816.0
2017-Nov-28 08:30N 38°41' W 028°38'815.5
2017-Nov-28 08:00N 38°42' W 028°48'815.4
2017-Nov-28 07:30N 38°42' W 028°58'815.2
2017-Nov-28 07:00N 38°43' W 029°08'815.3
2017-Nov-28 06:30N 38°43' W 029°17'815.5
2017-Nov-28 06:00N 38°44' W 029°27'815.3
2017-Nov-28 05:30N 38°44' W 029°37'1515.1
2017-Nov-28 04:30N 38°45' W 029°57'815.1
2017-Nov-28 04:00N 38°46' W 030°06'815.0
2017-Nov-28 03:30N 38°46' W 030°16'815.2
2017-Nov-28 03:00N 38°47' W 030°25'815.4
2017-Nov-28 02:30N 38°47' W 030°35'814.9
2017-Nov-28 02:00N 38°47' W 030°45'2115.0
2017-Nov-28 00:34N 38°48' W 031°12'214.7
2017-Nov-28 00:27N 38°48' W 031°15'715.6
2017-Nov-28 00:00N 38°48' W 031°24'114.0 070 / 211018.5 5.4 19.015.7
2017-Nov-27 23:55N 38°49' W 031°25'17714.8
2017-Nov-27 12:00N 38°48' W 035°12'18315.2 080 / 131020.5 5.4 20.016.7
2017-Nov-27 00:00N 38°42' W 039°06'18815.7 120 / 181020.5 5.4 19.015.7
2017-Nov-26 12:00N 38°30' W 043°06'17014.2 160 / 221019.5 5.4 21.016.1
2017-Nov-26 00:00N 38°12' W 046°42'19216.0 060 / 221018.5 5.4 16.012.4
2017-Nov-25 12:00N 37°42' W 050°42'18515.4 030 / 261020.5 5.4 18.014.6
2017-Nov-25 00:00N 37°06' W 054°30'18715.6 010 / 211018.5 5.4 20.016.7
2017-Nov-24 12:00N 36°24' W 058°18'17215.6 340 / 231016.5 5.4 22.017.2
2017-Nov-24 01:00N 35°36' W 061°42'   360 / 171014.5 21.017.8
Track history (hours):
 
Tides and Currents Weather Stations Pressure Air Temp Water Temp Dewpoint Dewpoint Depression Visibility Wind Speed Wind Dir Waves Ship Positions

Niledutch Osprey

Last reported at 2017-Dec-03 00:37 UTC. Time now 2017-Dec-14 08:24 UTC.
Position N 36°02' W 005°09'.
Warning: this ship's position is 11 days out of date.

Length 182 m; draft 9.6 m.

Type: Ship (hazmat cat A). MMSI: 538005042.

Date/timePositionNaut miles runAvg speedWind from/ knotsBaromVisibWave heightAir tempDewpointWater temp
2017-Dec-03 00:37N 36°02' W 005°09'218.8
2017-Dec-03 00:30N 36°02' W 005°12'918.4
2017-Dec-03 00:00N 36°05' W 005°22'3 5.6
2017-Dec-02 23:24N 36°08' W 005°25'0 0.0
2017-Dec-02 23:00N 36°08' W 005°25'0 0.0
2017-Dec-02 22:30N 36°08' W 005°25'0 0.0
2017-Dec-02 21:50N 36°08' W 005°25'0 0.0
2017-Dec-02 13:59N 36°08' W 005°25'1 1.1
2017-Dec-02 13:30N 36°08' W 005°25'2 2.7
2017-Dec-02 12:55N 36°07' W 005°24'0 0.2
2017-Dec-02 10:37N 36°06' W 005°24'0 0.1
2017-Dec-02 09:13N 36°06' W 005°24'0 0.1
2017-Dec-02 08:58N 36°06' W 005°24'0 0.0
2017-Dec-02 04:01N 36°06' W 005°24'0 0.2
2017-Dec-02 03:58N 36°06' W 005°24'0 0.1
2017-Dec-02 03:28N 36°06' W 005°24'0 0.0
2017-Dec-02 02:40N 36°06' W 005°24'0 0.0
2017-Dec-02 01:49N 36°06' W 005°24'0 0.0
2017-Dec-01 23:42N 36°06' W 005°24'0 0.0
2017-Dec-01 23:11N 36°06' W 005°24'6 0.6
2017-Dec-01 13:37N 35°60' W 005°25'215.3
2017-Dec-01 13:30N 35°59' W 005°26'20315.0
2017-Dec-01 00:00N 36°18' W 009°36'19115.9 040 / 191024.5 5.4 16.012.417.0
2017-Nov-30 12:00N 36°54' W 013°30'17914.9 040 / 231024.5 5.4 18.014.6
2017-Nov-30 00:00N 37°18' W 017°12'17214.4 070 / 301018.5 5.4 17.013.5
2017-Nov-29 12:00N 37°36' W 020°48'14713.3 070 / 311016.5 5.4 19.015.7
2017-Nov-29 00:55N 37°51' W 023°53'614.3
2017-Nov-29 00:30N 37°52' W 024°01'714.2
2017-Nov-29 00:00N 37°52' W 024°10'4282.6
2017-Nov-29 00:00N 37°48' W 024°12'714.0 070 / 301018.5 5.4 16.012.4
2017-Nov-28 23:30N 37°52' W 024°18'713.9
2017-Nov-28 23:00N 37°53' W 024°27'714.0
2017-Nov-28 22:31N 37°53' W 024°36'714.0
2017-Nov-28 22:00N 37°53' W 024°45'714.4
2017-Nov-28 21:30N 37°54' W 024°54'714.2
2017-Nov-28 21:01N 37°54' W 025°03'714.4
2017-Nov-28 20:30N 37°55' W 025°12'714.5
2017-Nov-28 20:01N 37°56' W 025°21'714.8
2017-Nov-28 19:30N 37°56' W 025°31'714.8
2017-Nov-28 19:01N 37°57' W 025°40'714.2
2017-Nov-28 18:30N 37°58' W 025°49'714.1
2017-Nov-28 18:01N 37°59' W 025°58'714.5
2017-Nov-28 17:30N 38°03' W 026°05'714.6
2017-Nov-28 17:01N 38°07' W 026°13'714.4
2017-Nov-28 16:31N 38°11' W 026°20'714.4
2017-Nov-28 16:00N 38°15' W 026°28'1312.7
2017-Nov-28 15:00N 38°23' W 026°41'612.0
2017-Nov-28 14:31N 38°26' W 026°47'612.1
2017-Nov-28 14:00N 38°30' W 026°54'612.7
2017-Nov-28 13:30N 38°33' W 027°01'714.6
2017-Nov-28 13:00N 38°32' W 027°10'714.8
2017-Nov-28 12:30N 38°32' W 027°19'714.9
2017-Nov-28 12:00N 38°31' W 027°29'2112.0
2017-Nov-28 12:00N 38°30' W 027°30'713.8 080 / 221018.5 2.2 20.016.7
2017-Nov-28 11:30N 38°31' W 027°39'815.2
2017-Nov-28 11:01N 38°30' W 027°48'815.8
2017-Nov-28 10:30N 38°32' W 027°58'816.7
2017-Nov-28 10:00N 38°34' W 028°08'816.4
2017-Nov-28 09:30N 38°36' W 028°18'816.3
2017-Nov-28 09:00N 38°38' W 028°28'816.0
2017-Nov-28 08:30N 38°41' W 028°38'815.5
2017-Nov-28 08:00N 38°42' W 028°48'815.4
2017-Nov-28 07:30N 38°42' W 028°58'815.2
2017-Nov-28 07:00N 38°43' W 029°08'815.3
2017-Nov-28 06:30N 38°43' W 029°17'815.5
2017-Nov-28 06:00N 38°44' W 029°27'815.3
2017-Nov-28 05:30N 38°44' W 029°37'1515.1
2017-Nov-28 04:30N 38°45' W 029°57'815.1
2017-Nov-28 04:00N 38°46' W 030°06'815.0
2017-Nov-28 03:30N 38°46' W 030°16'815.2
2017-Nov-28 03:00N 38°47' W 030°25'815.4
2017-Nov-28 02:30N 38°47' W 030°35'814.9
2017-Nov-28 02:00N 38°47' W 030°45'2115.0
2017-Nov-28 00:34N 38°48' W 031°12'214.7
2017-Nov-28 00:27N 38°48' W 031°15'715.6
2017-Nov-28 00:00N 38°48' W 031°24'114.0 070 / 211018.5 5.4 19.015.7
2017-Nov-27 23:55N 38°49' W 031°25'17714.8
2017-Nov-27 12:00N 38°48' W 035°12'18315.2 080 / 131020.5 5.4 20.016.7
2017-Nov-27 00:00N 38°42' W 039°06'18815.7 120 / 181020.5 5.4 19.015.7
2017-Nov-26 12:00N 38°30' W 043°06'17014.2 160 / 221019.5 5.4 21.016.1
2017-Nov-26 00:00N 38°12' W 046°42'19216.0 060 / 221018.5 5.4 16.012.4
2017-Nov-25 12:00N 37°42' W 050°42'18515.4 030 / 261020.5 5.4 18.014.6
2017-Nov-25 00:00N 37°06' W 054°30'18715.6 010 / 211018.5 5.4 20.016.7
2017-Nov-24 12:00N 36°24' W 058°18'17215.6 340 / 231016.5 5.4 22.017.2
2017-Nov-24 01:00N 35°36' W 061°42'   360 / 171014.5 21.017.8

Dump ship's entire track history